Time;durP1;ratioP1;P1;durP2;ratioP2;P2;SDS_P1;SDS_P2;PMS_P1;PMS_P2;Temp;Humidity;BMP_temperature;BMP_pressure;BME280_temperature;BME280_humidity;BME280_pressure;Samples;Min_cycle;Max_cycle;Signal;HPM_P1;HPM_P2
2022/10/30 00:00:25;;;;;;;11.43;4.35;;;16.90;99.90;;;15.91;87.89;100893.41;5067475;28;20032;-77
2022/10/30 00:02:51;;;;;;;9.65;4.20;;;17.00;99.90;;;15.94;87.12;100892.91;5067655;28;20054;-78
2022/10/30 00:05:18;;;;;;;11.95;4.28;;;17.10;99.90;;;15.94;87.11;100892.91;5068507;28;20040;-79
2022/10/30 00:07:44;;;;;;;12.52;4.22;;;17.10;99.90;;;15.87;88.45;100900.44;5068516;28;20115;-81
2022/10/30 00:10:10;;;;;;;14.30;4.38;;;17.00;99.90;;;15.73;89.37;100905.41;5068154;28;20066;-80
2022/10/30 00:12:36;;;;;;;9.43;4.20;;;17.00;99.90;;;15.64;89.87;100918.69;5068731;28;20028;-81
2022/10/30 00:15:03;;;;;;;10.23;4.07;;;16.80;99.90;;;15.52;90.00;100918.75;5072254;28;20443;-80
2022/10/30 00:17:28;;;;;;;10.30;3.67;;;16.80;99.90;;;15.57;88.97;100919.94;5072268;28;20391;-82
2022/10/30 00:19:54;;;;;;;20.02;4.60;;;16.70;99.90;;;15.63;87.49;100914.28;5077390;28;20047;-81
2022/10/30 00:22:20;;;;;;;12.23;4.88;;;16.80;99.90;;;15.74;85.96;100925.50;5070590;28;20029;-80
2022/10/30 00:24:46;;;;;;;13.32;4.82;;;16.80;99.90;;;15.88;85.69;100902.13;5071389;28;20584;-78
2022/10/30 00:27:11;;;;;;;12.13;4.57;;;16.90;99.90;;;16.17;82.69;100895.78;5076167;28;20040;-80
2022/10/30 00:29:37;;;;;;;17.45;5.78;;;17.20;99.90;;;16.38;81.72;100889.53;5071440;28;20065;-80
2022/10/30 00:32:03;;;;;;;12.57;4.90;;;17.40;99.90;;;16.50;80.25;100889.47;5069083;28;20024;-78
2022/10/30 00:34:29;;;;;;;13.63;4.97;;;17.60;99.90;;;16.58;80.41;100871.69;5070566;28;20044;-79
2022/10/30 00:36:55;;;;;;;15.60;5.50;;;17.70;99.90;;;16.60;79.83;100869.50;5071244;28;20376;-78
2022/10/30 00:39:20;;;;;;;12.85;4.97;;;17.70;99.90;;;16.61;79.68;100876.69;5079180;28;20032;-80
2022/10/30 00:41:46;;;;;;;13.77;5.15;;;17.70;99.90;;;16.57;80.17;100885.69;5071886;28;20043;-79
2022/10/30 00:44:30;;;;;;;12.40;4.63;;;17.70;99.90;;;16.62;79.31;100899.53;5068544;28;20040;-81
2022/10/30 00:46:57;;;;;;;14.88;4.95;;;17.70;99.90;;;16.67;79.15;100903.22;5059643;28;20035;-81
2022/10/30 00:49:24;;;;;;;11.32;4.53;;;17.80;99.90;;;16.68;78.75;100909.53;5070921;28;20028;-80
2022/10/30 00:51:54;;;;;;;12.77;4.80;;;17.80;99.90;;;16.64;79.14;100914.75;5083010;28;20032;-82
2022/10/30 00:54:22;;;;;;;13.50;4.47;;;17.70;99.90;;;16.58;79.39;100915.75;5071732;28;20024;-81
2022/10/30 00:56:51;;;;;;;10.93;4.47;;;17.70;99.90;;;16.56;80.40;100917.06;5074881;28;20469;-82
2022/10/30 00:59:27;;;;;;;12.15;4.68;;;17.70;99.90;;;16.54;79.95;100898.88;5058740;28;20029;-81
2022/10/30 01:01:53;;;;;;;11.65;4.57;;;17.70;99.90;;;16.59;79.89;100900.88;5080921;28;20032;-80
2022/10/30 01:04:21;;;;;;;11.40;4.50;;;17.60;99.90;;;16.57;79.54;100902.22;5060663;28;20124;-80
2022/10/30 01:06:51;;;;;;;9.52;4.30;;;17.60;99.90;;;16.58;79.61;100893.72;5064482;28;20058;-79
2022/10/30 01:09:21;;;;;;;9.95;4.50;;;17.70;99.90;;;16.63;78.71;100907.56;5079718;28;20031;-80
2022/10/30 01:11:47;;;;;;;14.38;4.80;;;17.70;99.90;;;16.63;79.43;100893.78;5078444;28;20032;-80
2022/10/30 01:14:18;;;;;;;11.90;4.88;;;17.70;99.90;;;16.59;79.25;100894.53;5064468;28;20166;-81
2022/10/30 01:17:06;;;;;;;10.90;4.80;;;17.70;99.90;;;16.57;79.34;100892.03;5081649;28;20088;-81
2022/10/30 01:20:11;;;;;;;9.88;3.90;;;17.70;99.90;;;16.52;79.70;100901.06;5057929;28;20046;-80
2022/10/30 01:23:09;;;;;;;12.13;4.40;;;17.60;99.90;;;16.44;80.88;100904.19;5064693;28;20680;-80
2022/10/30 01:25:59;;;;;;;13.52;4.70;;;17.60;99.90;;;16.34;81.72;100895.78;5066209;28;20042;-78
2022/10/30 01:28:55;;;;;;;9.93;3.88;;;17.50;99.90;;;16.34;81.45;100901.28;5063703;28;20077;-79
2022/10/30 01:32:08;;;;;;;11.20;4.15;;;17.40;99.90;;;16.37;80.94;100900.78;5064757;28;20029;-80
2022/10/30 01:34:58;;;;;;;9.95;4.38;;;17.50;99.90;;;16.33;81.38;100902.38;5027939;28;20571;-79
2022/10/30 01:38:01;;;;;;;9.73;4.03;;;17.40;99.90;;;16.37;80.94;100895.28;5059462;28;20590;-79
2022/10/30 01:40:27;;;;;;;10.88;4.00;;;17.50;99.90;;;16.34;80.86;100893.88;5065093;28;20047;-79
2022/10/30 01:42:57;;;;;;;11.93;3.97;;;17.50;99.90;;;16.32;81.23;100896.06;5065658;28;20050;-80
2022/10/30 01:45:43;;;;;;;13.82;3.83;;;17.40;99.90;;;16.34;81.03;100893.88;5062852;28;20055;-81
2022/10/30 01:48:51;;;;;;;9.93;4.25;;;17.50;99.90;;;16.28;81.42;100891.28;5082103;28;20531;-80
2022/10/30 01:51:54;;;;;;;11.02;3.80;;;17.40;99.90;;;16.31;81.44;100891.63;5064481;28;20062;-80
2022/10/30 01:54:44;;;;;;;13.05;4.05;;;17.40;99.90;;;16.31;81.41;100888.03;5060200;28;20103;-79
2022/10/30 01:57:33;;;;;;;8.25;4.35;;;17.40;99.90;;;16.27;81.31;100892.38;5064818;28;20047;-79
2022/10/30 02:00:11;;;;;;;9.93;4.25;;;17.40;99.90;;;16.27;81.66;100886.88;5068270;28;20086;-81
2022/10/30 02:02:40;;;;;;;;;;;17.40;99.90;;;16.30;81.52;100889.13;5084362;28;20032;-80
2022/10/30 02:05:13;;;;;;;12.55;3.90;;;17.40;99.90;;;16.28;81.46;100883.03;5072225;28;19944;-80
2022/10/30 02:07:39;;;;;;;13.25;4.28;;;17.40;99.90;;;16.23;81.79;100892.03;5059024;28;20028;-80
2022/10/30 02:10:10;;;;;;;12.98;4.35;;;17.40;99.90;;;16.24;81.43;100885.44;5070959;28;20047;-79
2022/10/30 02:12:36;;;;;;;10.20;4.00;;;17.40;99.90;;;16.17;82.54;100896.59;5055467;28;20032;-79
2022/10/30 02:15:03;;;;;;;10.93;4.43;;;17.30;99.90;;;16.06;82.68;100887.34;5062372;28;20020;-80
2022/10/30 02:17:29;;;;;;;10.18;4.50;;;17.20;99.90;;;16.03;83.46;100898.00;5073133;28;20191;-80
2022/10/30 02:19:55;;;;;;;13.82;3.85;;;17.20;99.90;;;15.92;84.22;100892.31;5056809;28;20120;-80
2022/10/30 02:22:23;;;;;;;12.25;3.95;;;17.00;99.90;;;15.86;84.51;100889.69;5066091;28;20495;-79
2022/10/30 02:24:49;;;;;;;12.25;4.43;;;17.00;99.90;;;15.79;85.23;100898.09;5052577;28;20032;-80
2022/10/30 02:27:15;;;;;;;11.73;4.93;;;16.90;99.90;;;15.78;85.01;100896.41;5061453;28;20047;-80
2022/10/30 02:29:41;;;;;;;11.05;4.40;;;16.90;99.90;;;15.72;85.97;100897.41;5061771;28;20028;-81
2022/10/30 02:32:07;;;;;;;11.80;4.30;;;16.80;99.90;;;15.71;85.90;100890.22;5096973;28;20225;-78
2022/10/30 02:34:33;;;;;;;8.82;4.53;;;16.80;99.90;;;15.70;85.68;100897.63;5078228;28;20072;-80
2022/10/30 02:37:00;;;;;;;13.65;4.80;;;16.80;99.90;;;15.68;86.07;100908.91;5096810;28;20008;-79
2022/10/30 02:39:26;;;;;;;12.18;4.45;;;16.80;99.90;;;15.73;85.15;100899.06;5079010;28;20384;-80
2022/10/30 02:41:52;;;;;;;12.15;4.47;;;16.80;99.90;;;15.72;85.43;100900.97;5089219;28;20035;-79
2022/10/30 02:44:18;;;;;;;9.50;3.92;;;16.80;99.90;;;15.67;85.95;100907.22;5090751;28;20040;-80
2022/10/30 02:46:45;;;;;;;12.00;4.20;;;16.80;99.90;;;15.70;85.63;100913.31;5092985;28;20020;-80
2022/10/30 02:49:11;;;;;;;12.45;3.90;;;16.80;99.90;;;15.65;85.90;100903.03;5064848;28;20392;-80
2022/10/30 02:51:37;;;;;;;10.48;4.00;;;16.80;99.90;;;15.68;85.67;100899.78;5069624;28;20024;-80
2022/10/30 02:54:03;;;;;;;13.38;4.28;;;16.80;99.90;;;15.67;85.79;100900.88;5073005;28;20024;-80
2022/10/30 02:56:30;;;;;;;14.23;3.92;;;16.80;99.90;;;15.68;85.80;100902.53;5064697;28;20069;-82
2022/10/30 02:58:56;;;;;;;9.43;3.90;;;16.80;99.90;;;15.64;85.91;100909.63;5056860;28;20115;-81
2022/10/30 03:01:22;;;;;;;12.82;4.70;;;16.80;99.90;;;15.60;86.37;100911.19;5068510;28;20123;-80
2022/10/30 03:03:52;;;;;;;11.75;4.43;;;16.70;99.90;;;15.59;86.63;100906.78;5066216;28;20736;-81
2022/10/30 03:06:18;;;;;;;12.07;4.05;;;16.70;99.90;;;15.52;87.24;100904.16;5061476;28;20029;-80
2022/10/30 03:08:44;;;;;;;10.93;4.10;;;16.70;99.90;;;15.47;87.71;100904.88;5068329;28;20064;-81
2022/10/30 03:11:16;;;;;;;9.57;4.32;;;16.60;99.90;;;15.45;87.93;100901.53;5050562;28;20028;-82
2022/10/30 03:13:44;;;;;;;10.82;4.00;;;16.60;99.90;;;15.48;87.40;100900.22;5071822;28;20362;-80
2022/10/30 03:16:23;;;;;;;11.88;4.22;;;16.60;99.90;;;15.45;87.63;100893.28;5068624;28;20032;-80
2022/10/30 03:18:51;;;;;;;10.88;3.90;;;16.60;99.90;;;15.48;87.27;100902.97;5050533;28;20036;-81
2022/10/30 03:21:22;;;;;;;11.68;4.20;;;16.60;99.90;;;15.37;87.51;100889.00;5067131;28;20143;-81
2022/10/30 03:23:49;;;;;;;10.00;4.50;;;16.50;99.90;;;15.33;88.48;100903.50;5059112;28;20122;-81
2022/10/30 03:26:16;;;;;;;10.77;4.13;;;16.50;99.90;;;15.20;89.62;100908.16;5072173;28;20024;-80
2022/10/30 03:28:57;;;;;;;13.15;4.45;;;16.40;99.90;;;15.13;89.71;100901.16;5064535;28;20040;-80
2022/10/30 03:31:22;;;;;;;13.38;4.35;;;16.30;99.90;;;15.12;90.10;100902.19;5056557;28;20715;-81
2022/10/30 03:34:05;;;;;;;11.20;4.40;;;16.30;99.90;;;15.14;89.70;100898.16;5056183;28;20486;-80
2022/10/30 03:36:31;;;;;;;12.68;4.55;;;16.30;99.90;;;15.16;89.26;100901.50;5077057;28;20020;-80
2022/10/30 03:38:56;;;;;;;12.60;4.25;;;16.30;99.90;;;15.23;88.89;100884.88;5072568;28;20118;-80
2022/10/30 03:41:23;;;;;;;9.57;3.83;;;16.40;99.90;;;15.31;87.95;100889.97;5054391;28;20375;-81
2022/10/30 03:43:50;;;;;;;8.77;4.07;;;16.40;99.90;;;15.32;88.19;100885.34;5072993;28;20073;-80
2022/10/30 03:46:15;;;;;;;9.27;3.95;;;16.40;99.90;;;15.29;88.30;100886.66;5072811;28;20416;-81
2022/10/30 03:48:42;;;;;;;8.90;3.97;;;16.50;99.90;;;15.48;86.92;100898.31;5064611;28;20032;-81
2022/10/30 03:51:09;;;;;;;12.00;4.75;;;16.50;99.90;;;15.38;87.67;100882.47;5068683;28;20081;-80
2022/10/30 03:53:35;;;;;;;8.70;4.00;;;16.50;99.90;;;15.43;86.77;100883.63;5056895;28;20036;-79
2022/10/30 03:56:03;;;;;;;8.90;3.80;;;16.50;99.90;;;15.45;86.56;100886.97;5063307;28;20055;-80
2022/10/30 03:58:37;;;;;;;9.77;3.92;;;16.60;99.90;;;15.51;86.04;100886.81;5058037;28;20020;-81
2022/10/30 04:01:07;;;;;;;13.00;3.67;;;16.60;99.90;;;15.60;85.40;100894.69;5059002;28;20090;-80
2022/10/30 04:03:36;;;;;;;14.27;4.07;;;16.70;99.90;;;15.57;85.60;100890.50;5067854;28;20441;-80
2022/10/30 04:06:02;;;;;;;11.80;3.83;;;16.70;99.90;;;15.64;84.42;100888.44;5059892;28;20028;-80
2022/10/30 04:08:28;;;;;;;12.07;3.72;;;16.70;99.90;;;15.61;84.88;100901.88;5064926;28;20036;-80
2022/10/30 04:10:53;;;;;;;14.48;3.92;;;16.70;99.90;;;15.60;85.34;100911.19;5055813;28;20025;-80
2022/10/30 04:13:19;;;;;;;11.25;4.07;;;16.70;99.90;;;15.62;84.76;100909.84;5067656;28;20110;-79
2022/10/30 04:15:50;;;;;;;8.80;3.85;;;16.70;99.90;;;15.64;84.30;100907.69;5061300;28;20122;-79
2022/10/30 04:18:18;;;;;;;;;;;16.80;99.90;;;15.68;83.97;100910.81;5065208;28;20032;-80
2022/10/30 04:20:44;;;;;;;8.02;3.80;;;16.80;99.90;;;15.65;84.38;100914.03;5075002;28;19961;-80
2022/10/30 04:23:18;;;;;;;11.98;3.25;;;16.80;99.90;;;15.64;84.21;100904.13;5062658;28;20485;-80
2022/10/30 04:25:44;;;;;;;12.73;3.75;;;16.70;99.90;;;15.57;84.46;100906.19;5071658;28;20043;-81
2022/10/30 04:28:11;;;;;;;13.48;4.00;;;16.70;99.90;;;15.60;84.28;100905.69;5070925;28;20070;-80
2022/10/30 04:30:38;;;;;;;11.75;4.15;;;16.70;99.90;;;15.53;84.98;100903.94;5065211;28;20113;-81
2022/10/30 04:33:08;;;;;;;10.90;4.40;;;16.70;99.90;;;15.52;85.09;100905.00;5071550;28;20499;-81
2022/10/30 04:35:36;;;;;;;12.52;3.97;;;16.60;99.90;;;15.38;86.11;100898.97;5058891;28;20181;-81
2022/10/30 04:38:12;;;;;;;;;;;16.50;99.90;;;15.35;86.31;100904.09;5054149;28;20442;-80
2022/10/30 04:40:40;;;;;;;10.77;3.72;;;16.40;99.90;;;15.28;86.61;100904.22;5071286;28;19912;-80
2022/10/30 04:43:08;;;;;;;11.07;3.67;;;16.40;99.90;;;15.21;87.16;100892.53;5059855;28;20044;-81
2022/10/30 04:45:35;;;;;;;9.95;4.43;;;16.40;99.90;;;15.14;87.97;100897.34;5078371;28;20025;-81
2022/10/30 04:48:15;;;;;;;10.10;4.43;;;16.30;99.90;;;15.02;89.15;100902.84;5059336;28;20028;-81
2022/10/30 04:50:42;;;;;;;14.32;4.15;;;16.10;99.90;;;14.92;89.59;100895.19;5074196;28;20044;-80
2022/10/30 04:53:18;;;;;;;11.82;3.65;;;16.10;99.90;;;14.83;90.18;100897.47;5062661;28;20027;-81
2022/10/30 04:55:46;;;;;;;7.15;4.03;;;16.00;99.90;;;14.70;90.94;100895.75;5054406;28;20032;-82
2022/10/30 04:58:13;;;;;;;11.93;4.20;;;15.90;99.90;;;14.69;91.82;100896.84;5053160;28;20396;-80
2022/10/30 05:00:42;;;;;;;11.95;4.40;;;15.80;99.90;;;14.55;92.67;100889.91;5064584;28;20030;-79
2022/10/30 05:03:20;;;;;;;13.65;4.00;;;15.70;99.90;;;14.36;93.97;100895.50;5072069;28;20062;-80
2022/10/30 05:05:55;;;;;;;9.85;4.30;;;15.50;99.90;;;14.15;95.80;100896.88;5071252;28;20074;-79
2022/10/30 05:08:21;;;;;;;8.80;3.92;;;15.40;99.90;;;14.04;97.47;100893.03;5070185;28;20060;-80
2022/10/30 05:10:47;;;;;;;11.27;3.95;;;15.30;99.90;;;13.93;98.43;100895.50;5056847;28;20075;-80
2022/10/30 05:13:13;;;;;;;11.30;4.15;;;15.20;99.90;;;13.89;99.56;100888.81;5056031;28;20029;-80
2022/10/30 05:15:41;;;;;;;12.20;4.40;;;15.10;99.90;;;13.86;99.60;100894.78;5057409;28;20028;-79
2022/10/30 05:18:07;;;;;;;11.38;4.22;;;15.10;99.90;;;13.81;99.98;100889.16;5064334;28;20186;-80
2022/10/30 05:20:33;;;;;;;14.25;4.13;;;15.00;99.90;;;13.81;100.00;100884.50;5063344;28;20488;-79
2022/10/30 05:22:59;;;;;;;11.25;4.40;;;15.00;99.90;;;13.76;100.00;100889.00;5072954;28;20047;-80
2022/10/30 05:25:27;;;;;;;11.60;4.65;;;15.00;99.90;;;13.70;100.00;100888.03;5061969;28;20024;-80
2022/10/30 05:28:04;;;;;;;8.70;4.28;;;14.90;99.90;;;13.71;100.00;100886.97;5066599;28;20028;-80
2022/10/30 05:30:36;;;;;;;10.95;4.20;;;14.90;99.90;;;13.76;100.00;100886.25;5062785;28;20543;-81
2022/10/30 05:33:10;;;;;;;9.55;4.13;;;14.90;99.90;;;13.70;100.00;100885.28;5060902;28;20028;-80
2022/10/30 05:35:37;;;;;;;12.35;4.47;;;14.90;99.90;;;13.66;100.00;100886.84;5075233;28;20028;-80
2022/10/30 05:38:06;;;;;;;9.30;4.43;;;14.90;99.90;;;13.64;100.00;100884.31;5058305;28;20060;-79
2022/10/30 05:40:34;;;;;;;14.18;4.57;;;14.80;99.90;;;13.72;100.00;100882.31;5055703;28;20071;-79
2022/10/30 05:43:00;;;;;;;8.00;3.85;;;14.90;99.90;;;13.75;100.00;100887.31;5068509;28;20563;-79
2022/10/30 05:45:25;;;;;;;12.75;4.50;;;14.90;99.90;;;13.78;100.00;100898.66;5067847;28;21406;-80
2022/10/30 05:47:59;;;;;;;;;;;14.90;99.90;;;13.79;100.00;100886.63;5061353;28;20025;-82
2022/10/30 05:50:30;;;;;;;13.20;4.43;;;15.00;99.90;;;13.70;100.00;100898.16;5068429;28;19920;-82
2022/10/30 05:53:12;;;;;;;11.93;4.50;;;14.90;99.90;;;13.68;100.00;100894.81;5080168;28;20035;-82
2022/10/30 05:55:39;;;;;;;11.25;4.07;;;14.90;99.90;;;13.69;100.00;100904.69;5053454;28;20094;-82
2022/10/30 05:58:09;;;;;;;10.48;4.13;;;14.90;99.90;;;13.62;100.00;100897.41;5066082;28;20647;-77
2022/10/30 06:00:39;;;;;;;10.85;4.35;;;14.80;99.90;;;13.64;100.00;100905.38;5075214;28;20029;-77
2022/10/30 06:03:10;;;;;;;15.13;4.63;;;14.80;99.90;;;13.74;100.00;100910.31;5049970;28;20028;-78
2022/10/30 06:05:39;;;;;;;11.88;4.18;;;14.90;99.90;;;13.80;100.00;100906.69;5067763;28;20118;-77
2022/10/30 06:08:06;;;;;;;10.38;4.18;;;15.00;99.90;;;13.75;100.00;100912.00;5069430;28;20082;-77
2022/10/30 06:10:33;;;;;;;12.13;4.03;;;14.90;99.90;;;13.64;100.00;100908.97;5057400;28;20115;-78
2022/10/30 06:13:22;;;;;;;;;;;14.90;99.90;;;13.59;100.00;100911.59;5052955;28;20074;-77
2022/10/30 06:16:09;;;;;;;12.05;3.90;;;14.80;99.90;;;13.50;100.00;100910.19;5068908;28;19934;-79
2022/10/30 06:18:55;;;;;;;18.58;4.75;;;14.70;99.90;;;13.33;100.00;100910.81;5073021;28;20486;-78
2022/10/30 06:21:22;;;;;;;10.45;4.30;;;14.60;99.90;;;13.26;100.00;100910.06;5062546;28;20557;-76
2022/10/30 06:24:14;;;;;;;10.50;4.55;;;14.50;99.90;;;13.15;100.00;100919.03;5064951;28;20051;-80
2022/10/30 06:26:51;;;;;;;9.63;4.43;;;14.40;99.90;;;13.17;100.00;100911.41;5072861;28;20024;-77
2022/10/30 06:29:17;;;;;;;11.30;4.57;;;14.40;99.90;;;13.06;100.00;100902.91;5067938;28;20024;-75
2022/10/30 06:31:44;;;;;;;12.60;4.65;;;14.40;99.90;;;13.15;100.00;100914.41;5064124;28;20020;-79
2022/10/30 06:34:11;;;;;;;10.05;4.22;;;14.40;99.90;;;13.19;100.00;100917.50;5060626;28;20056;-75
2022/10/30 06:36:39;;;;;;;12.65;4.20;;;14.40;99.90;;;13.27;100.00;100925.44;5063046;28;20052;-76
2022/10/30 06:39:05;;;;;;;12.95;4.30;;;14.40;99.90;;;13.38;100.00;100924.66;5054185;28;20028;-75
2022/10/30 06:41:41;;;;;;;13.32;4.28;;;14.50;99.90;;;13.43;100.00;100918.53;5061916;28;20368;-76
2022/10/30 06:44:30;;;;;;;;;;;14.60;99.90;;;13.53;100.00;100926.22;5067318;28;20547;-76
2022/10/30 06:46:56;;;;;;;12.45;4.60;;;14.70;99.90;;;13.57;100.00;100946.63;5079424;28;19968;-75
2022/10/30 06:49:22;;;;;;;9.98;4.10;;;14.70;99.90;;;13.55;100.00;100932.31;5065920;28;20057;-75
2022/10/30 06:51:50;;;;;;;10.95;4.20;;;14.70;99.90;;;13.53;100.00;100948.16;5057505;28;20131;-75
2022/10/30 06:54:15;;;;;;;11.88;4.30;;;14.70;99.90;;;13.57;100.00;100952.09;5061176;28;20067;-75
2022/10/30 06:56:41;;;;;;;10.82;4.50;;;14.70;99.90;;;13.55;100.00;100954.22;5068121;28;20440;-75
2022/10/30 06:59:19;;;;;;;10.15;4.63;;;14.70;99.90;;;13.57;100.00;100953.97;5070812;28;20064;-75
2022/10/30 07:01:52;;;;;;;11.98;4.40;;;14.70;99.90;;;13.53;100.00;100961.84;5068710;28;20028;-75
2022/10/30 07:04:24;;;;;;;15.35;5.03;;;14.70;99.90;;;13.45;100.00;100949.28;5068272;28;20020;-75
2022/10/30 07:06:50;;;;;;;10.70;4.72;;;14.70;99.90;;;13.44;100.00;100958.56;5066907;28;20032;-74
2022/10/30 07:09:18;;;;;;;6.95;4.18;;;14.70;99.90;;;13.44;100.00;100963.19;5066484;28;20032;-75
2022/10/30 07:11:44;;;;;;;10.60;4.95;;;14.70;99.90;;;13.44;100.00;100963.19;5078907;28;20114;-75
2022/10/30 07:14:38;;;;;;;11.27;5.50;;;14.70;99.90;;;13.48;100.00;100976.22;5054058;28;20854;-76
2022/10/30 07:17:17;;;;;;;12.48;5.25;;;14.70;99.90;;;13.54;100.00;100974.50;5058648;28;20496;-77
2022/10/30 07:19:49;;;;;;;11.52;4.30;;;14.70;99.90;;;13.70;100.00;100966.69;5070851;28;20030;-76
2022/10/30 07:22:15;;;;;;;9.57;4.75;;;14.90;99.90;;;13.86;100.00;100973.44;5067077;28;20040;-75
2022/10/30 07:24:45;;;;;;;14.27;4.30;;;15.00;99.90;;;13.98;100.00;100979.00;5061732;28;20161;-75
2022/10/30 07:27:29;;;;;;;10.23;4.65;;;15.10;99.90;;;14.13;100.00;100978.56;5068542;28;20399;-76
2022/10/30 07:30:06;;;;;;;8.45;3.80;;;15.30;99.90;;;14.26;100.00;100980.28;5060813;28;20461;-76
2022/10/30 07:32:39;;;;;;;12.38;4.45;;;15.40;99.90;;;14.34;100.00;100978.06;5061004;28;20020;-75
2022/10/30 07:35:24;;;;;;;10.48;4.30;;;15.50;99.90;;;14.33;100.00;100975.56;5067429;28;20024;-79
2022/10/30 07:38:04;;;;;;;9.43;4.55;;;15.50;99.90;;;14.35;100.00;100976.16;5073039;28;20044;-75
2022/10/30 07:40:41;;;;;;;9.18;3.75;;;15.60;99.90;;;14.45;100.00;100987.41;5061535;28;20403;-76
2022/10/30 07:43:25;;;;;;;13.77;4.05;;;15.60;99.90;;;14.62;97.36;100986.72;5068177;28;20547;-75
2022/10/30 07:46:00;;;;;;;7.88;3.75;;;15.80;99.90;;;14.77;95.90;100989.88;5075126;28;20035;-75
2022/10/30 07:48:55;;;;;;;17.33;4.20;;;15.90;99.90;;;14.95;94.81;100996.34;5051567;28;20047;-75
2022/10/30 07:51:27;;;;;;;13.52;4.47;;;16.10;99.90;;;15.03;96.26;100992.41;5072959;28;20024;-74
2022/10/30 07:53:54;;;;;;;11.18;4.18;;;16.20;99.90;;;15.07;97.35;100996.38;5079485;28;20028;-77
2022/10/30 07:56:22;;;;;;;12.05;4.50;;;16.30;99.90;;;15.14;93.00;100997.06;5060095;28;20555;-77
2022/10/30 07:58:51;;;;;;;10.95;4.10;;;16.40;99.90;;;15.22;94.72;101004.94;5071734;28;20029;-76
2022/10/30 08:01:49;;;;;;;11.05;4.25;;;16.40;99.90;;;15.31;95.18;100996.38;5041575;28;20098;-76
2022/10/30 08:04:25;;;;;;;11.98;4.13;;;16.50;99.90;;;15.45;92.45;100996.94;5054850;28;20396;-76
2022/10/30 08:06:56;;;;;;;8.60;4.25;;;16.60;99.90;;;15.58;91.35;101006.84;5050576;28;20036;-77
2022/10/30 08:09:22;;;;;;;11.77;4.35;;;16.70;99.90;;;15.68;90.94;100993.31;5066280;28;20055;-76
2022/10/30 08:11:48;;;;;;;13.65;4.50;;;16.80;99.90;;;15.79;89.35;100992.47;5059145;28;20036;-75
2022/10/30 08:14:14;;;;;;;10.60;4.40;;;16.90;99.90;;;15.86;88.54;100992.28;5062941;28;20468;-76
2022/10/30 08:16:40;;;;;;;9.23;4.13;;;17.00;99.90;;;15.93;88.07;100995.78;5055578;28;20017;-77
2022/10/30 08:19:07;;;;;;;11.77;4.03;;;17.10;99.90;;;16.01;86.73;100993.72;5064275;28;20036;-75
2022/10/30 08:21:33;;;;;;;8.20;4.13;;;17.20;99.90;;;16.05;87.71;100998.50;5077819;28;20028;-76
2022/10/30 08:24:10;;;;;;;10.77;4.32;;;17.30;99.90;;;16.13;88.26;100997.25;5076127;28;20032;-77
2022/10/30 08:26:37;;;;;;;;;;;17.30;99.90;;;16.21;87.48;100991.38;5059543;28;21079;-76
2022/10/30 08:29:03;;;;;;;8.30;4.47;;;17.40;99.90;;;16.30;85.64;100996.47;5061689;28;19917;-76
2022/10/30 08:31:30;;;;;;;10.23;4.70;;;17.50;99.90;;;16.43;84.95;100990.66;5067187;28;20107;-76
2022/10/30 08:34:19;;;;;;;10.55;4.50;;;17.50;99.90;;;16.56;84.64;100983.97;5071478;28;20473;-76
2022/10/30 08:36:51;;;;;;;;;;;17.70;99.90;;;16.66;85.43;100986.09;5049580;28;20056;-76
2022/10/30 08:39:18;;;;;;;12.93;4.82;;;17.70;99.90;;;16.79;83.35;100985.75;5067800;28;19928;-76
2022/10/30 08:42:00;;;;;;;10.70;4.70;;;17.90;99.90;;;16.90;82.61;100994.19;5035543;28;20025;-75
2022/10/30 08:44:33;;;;;;;9.50;4.40;;;18.00;99.90;;;16.95;82.58;100989.59;5065064;28;20109;-75
2022/10/30 08:47:17;;;;;;;12.52;5.35;;;18.10;99.90;;;17.07;81.86;100994.19;5065482;28;20074;-75
2022/10/30 08:49:44;;;;;;;13.20;5.63;;;18.30;99.90;;;17.20;81.36;100995.78;5059411;28;20039;-75
2022/10/30 08:52:11;;;;;;;13.07;4.97;;;18.40;99.90;;;17.34;81.60;100991.59;5058930;28;20043;-72
2022/10/30 08:54:38;;;;;;;11.20;4.28;;;18.40;99.90;;;17.46;78.30;100999.75;5050427;28;20041;-73
2022/10/30 08:57:04;;;;;;;10.10;4.53;;;18.60;99.90;;;17.66;80.06;100998.34;5055825;28;20139;-75
2022/10/30 08:59:31;;;;;;;12.18;4.28;;;18.80;99.90;;;17.73;77.74;100999.00;5069432;28;20024;-75
2022/10/30 09:01:58;;;;;;;6.97;3.45;;;18.90;99.90;;;17.78;77.81;100999.06;5060799;28;20028;-74
2022/10/30 09:04:59;;;;;;;10.25;3.80;;;19.00;99.90;;;18.03;77.49;101011.53;5072038;28;20089;-75
2022/10/30 09:07:46;;;;;;;9.60;3.90;;;19.10;99.90;;;18.13;75.08;101007.19;5068960;28;20040;-75
2022/10/30 09:10:30;;;;;;;10.85;4.32;;;19.30;99.90;;;18.21;74.91;101002.06;5071354;28;20040;-75
2022/10/30 09:12:58;;;;;;;8.30;4.10;;;19.40;99.90;;;18.36;74.44;101011.59;5057564;28;20032;-75
2022/10/30 09:15:25;;;;;;;10.52;4.10;;;19.50;99.90;;;18.62;73.15;101003.56;5074755;28;20074;-74
2022/10/30 09:17:59;;;;;;;11.35;4.40;;;19.70;99.90;;;18.82;71.84;101011.19;5052804;28;20440;-74
2022/10/30 09:20:27;;;;;;;9.52;3.95;;;19.90;99.90;;;19.15;69.03;101011.22;5055740;28;20025;-76
2022/10/30 09:22:53;;;;;;;12.38;4.07;;;20.20;99.90;;;19.43;65.72;101012.75;5074394;28;20035;-75
2022/10/30 09:25:20;;;;;;;9.88;3.75;;;20.50;99.90;;;19.71;63.34;101015.41;5075405;28;20089;-77
2022/10/30 09:27:56;;;;;;;13.60;3.80;;;20.80;99.90;;;19.95;61.87;101016.63;5052716;28;20020;-77
2022/10/30 09:30:26;;;;;;;9.65;3.55;;;21.20;99.90;;;19.97;62.45;101003.34;5064698;28;20107;-78
2022/10/30 09:33:01;;;;;;;10.95;3.67;;;21.60;99.90;;;20.35;61.62;101005.94;5072890;28;20600;-77
2022/10/30 09:35:49;;;;;;;11.32;3.92;;;22.40;99.90;;;20.93;58.95;101007.66;5069937;28;20036;-78
2022/10/30 09:38:15;;;;;;;12.65;4.20;;;;;;;21.29;56.94;101009.56;5075266;28;20029;-78
2022/10/30 09:41:35;;;;;;;7.40;3.42;;;;;;;22.00;52.62;101012.41;5073253;28;20496;-77
2022/10/30 09:44:26;;;;;;;12.15;3.90;;;;;;;22.99;49.68;101021.75;5024989;28;20048;-77
2022/10/30 09:47:16;;;;;;;14.10;3.85;;;;;;;24.31;45.73;101031.13;5005636;28;20178;-77
2022/10/30 09:50:04;;;;;;;8.38;4.00;;;;;;;24.83;44.61;101034.81;5065455;28;20044;-78
2022/10/30 09:53:18;;;;;;;9.45;3.45;;;;;;;25.47;41.97;101032.63;5051426;28;20040;-78
2022/10/30 09:56:00;;;;;;;11.57;3.40;;;;;;;26.35;40.14;101036.38;5034969;28;20600;-78
2022/10/30 09:58:57;;;;;;;10.18;3.30;;;;;;;27.04;38.20;101040.88;5069676;28;20035;-77
2022/10/30 10:01:46;;;;;;;11.73;3.53;;;;;;;28.32;35.72;101039.56;5005360;28;20119;-76
2022/10/30 10:04:39;;;;;;;8.25;4.05;;;;;;;28.28;34.95;101043.03;5066626;28;20049;-77
2022/10/30 10:07:39;;;;;;;8.95;3.58;;;;;;;27.91;35.47;101047.22;5069275;28;20102;-76
2022/10/30 10:10:49;;;;;;;10.95;3.70;;;;;;;27.78;35.54;101027.41;5044598;28;20499;-77
2022/10/30 10:13:44;;;;;;;9.95;3.70;;;;;;;28.55;34.21;101031.84;5040863;28;20068;-77
2022/10/30 10:16:19;;;;;;;10.32;3.72;;;;;;;28.47;34.70;101033.47;5058415;28;20056;-77
2022/10/30 10:18:56;;;;;;;8.13;3.53;;;;;;;28.46;34.67;101029.03;5068890;28;20060;-77
2022/10/30 10:21:27;;;;;;;10.48;3.38;;;;;;;28.06;34.65;101026.31;5069375;28;20032;-76
2022/10/30 10:24:03;;;;;;;11.48;3.88;;;;;;;28.74;33.93;101025.88;5068802;28;20052;-77
2022/10/30 10:26:35;;;;;;;11.32;3.72;;;;;;;29.52;32.63;101028.84;5073371;28;20115;-77
2022/10/30 10:29:07;;;;;;;11.23;4.10;;;;;;;29.43;31.56;101026.06;5069187;28;20130;-76
2022/10/30 10:31:46;;;;;;;13.50;3.45;;;;;;;29.80;30.43;101034.00;5068793;28;20036;-77
2022/10/30 10:34:34;;;;;;;10.52;3.20;;;;;;;29.79;30.74;101029.53;5069074;28;20419;-76
2022/10/30 10:37:33;;;;;;;11.48;3.65;;;;;;;29.78;30.19;101030.72;5068731;28;20047;-77